Station: Badgingarra

  Atmospheric Gas Attenuation - ITU Rec 676-11   --------------- db/100km ---------------
Date Time Temp RH % AH g/m3 Dew Point Wind Direction Speed kph Gust kph Barometer mB Rainfall Since 9am 24GHz 47GHz 76GHz 122GHz 134GHz 241GHz
07 06:40 7.3 83 6.56 4.7 22 26 1013.1 15.5 24.4 34.6 90.5 78.7 268.7
07 06:30 7.2 84 6.6 4.7 20 28 1013.1 15.6 24.5 34.8 91.1 79.4 270.9
07 06:20 7.3 82 6.48 4.4 22 28 1013.1 15.3 24.3 34.3 89.7 77.7 265.0
07 06:10 7.5 82 6.57 4.6 30 33 1013.1 15.5 24.4 34.6 90.4 78.7 268.5
07 06:00 7.5 82 6.57 4.6 26 35 1013.1 15.5 24.4 34.6 90.4 78.7 268.5
07 05:50 7.4 82 6.52 4.5 24 28 1013.1 15.4 24.3 34.4 90.0 78.1 266.5
07 05:40 7.3 83 6.56 4.6 22 28 1013.1 15.5 24.4 34.6 90.5 78.7 268.7
07 05:30 7.3 82 6.48 4.4 26 33 1013.1 15.3 24.3 34.3 89.7 77.7 265.0
07 05:20 7.2 83 6.52 4.5 24 33 1013.1 15.4 24.4 34.5 90.2 78.3 267.2
07 05:10 7.3 83 6.56 4.6 20 26 1013.1 15.5 24.4 34.6 90.5 78.7 268.7
07 05:00 7.3 83 6.56 4.6 24 33 1013.1 15.5 24.4 34.6 90.5 78.7 268.7
07 04:50 7.2 83 6.52 4.6 22 28 1013.1 15.4 24.4 34.5 90.2 78.3 267.2
07 04:40 6.8 85 6.5 4.4 20 24 1013.1 15.4 24.4 34.6 90.5 78.4 267.6
07 04:30 6.7 85 6.46 4.4 17 22 1013.1 15.3 24.4 34.5 90.1 78.0 266.0
07 04:20 7.1 83 6.48 4.4 19 24 1013.1 15.3 24.3 34.4 89.9 77.9 265.6
07 04:10 7.3 83 6.56 4.6 20 22 1013.1 15.5 24.4 34.6 90.5 78.7 268.7
07 04:00 7.3 82 6.48 4.4 20 28 1013.1 15.3 24.3 34.3 89.7 77.7 265.0
07 03:40 7.3 83 6.56 4.6 22 26 1013.1 15.5 24.4 34.6 90.5 78.7 268.7
07 03:10 7.5 82 6.57 4.6 26 32 1013.1 15.5 24.4 34.6 90.4 78.7 268.5
07 03:00 7.6 81 6.53 4.6 24 30 1013.1 15.4 24.3 34.4 89.9 78.0 266.3
07 02:50 7.9 80 6.57 4.6 26 30 1013.1 15.5 24.3 34.4 89.9 78.2 267.1
07 02:40 7.9 81 6.66 4.8 24 32 1013.1 15.7 24.4 34.8 90.9 79.4 271.3
07 02:30 7.7 81 6.57 4.7 22 28 1013.1 15.5 24.3 34.5 90.2 78.4 267.8
07 02:20 7.9 80 6.57 4.6 20 26 1013.1 15.5 24.3 34.4 89.9 78.2 267.1
07 02:10 8 80 6.62 4.7 20 24 1013.1 15.6 24.3 34.5 90.4 78.8 269.1
07 02:00 8 80 6.62 4.8 20 24 1013.1 15.6 24.3 34.5 90.4 78.8 269.1
07 01:50 8.2 78 6.53 4.6 19 24 1013.1 15.4 24.1 34.1 89.2 77.4 264.2
07 01:30 8.6 77 6.62 4.8 24 32 1013.1 15.6 24.2 34.3 89.7 78.2 267.0
07 01:20 8.6 77 6.62 4.8 24 28 1013.1 15.6 24.2 34.3 89.7 78.2 267.0
07 01:10 8.8 76 6.62 4.8 20 28 1013.1 15.6 24.1 34.2 89.5 78.0 266.4
07 01:00 8.8 77 6.7 5 20 26 1013.1 15.7 24.2 34.5 90.3 79.1 270.1
07 00:50 8.6 77 6.62 4.9 24 28 1013.1 15.6 24.2 34.3 89.7 78.2 267.0
07 00:40 8.3 78 6.58 4.7 19 22 1013.1 15.5 24.2 34.3 89.6 78.0 266.2
07 00:30 8.7 77 6.66 4.9 17 24 1013.1 15.7 24.2 34.4 90.0 78.6 268.5
07 00:20 8.9 76 6.66 4.9 15 19 1013.1 15.7 24.1 34.3 89.8 78.4 267.9
07 00:10 9 76 6.7 5 20 24 1013.1 15.7 24.2 34.4 90.1 78.8 269.4
07 00:00 8.9 77 6.75 5.1 24 32 1013.1 15.8 24.3 34.7 90.7 79.6 272.0
06 23:50 8.8 77 6.7 5 26 30 1013.1 15.7 24.2 34.5 90.3 79.1 270.1
06 23:40 9.2 76 6.79 5.2 32 35 1013.1 15.9 24.3 34.7 90.8 79.8 272.8
06 23:30 9.3 75 6.74 5.1 26 37 1013.1 15.8 24.2 34.5 90.2 79.1 270.2
06 23:20 9.3 75 6.74 5.1 24 28 1013.1 15.8 24.2 34.5 90.2 79.1 270.2
06 23:10 9.5 75 6.83 5.3 28 35 1013.1 16.0 24.2 34.7 90.9 80.0 273.6
06 23:00 10 73 6.86 5.4 30 44 1013.1 16.0 24.2 34.6 90.6 79.9 273.3
06 22:50 10 73 6.86 5.4 30 32 1013.1 16.0 24.2 34.6 90.6 79.9 273.3
06 22:40 9.8 74 6.87 5.4 24 30 1013.1 16.1 24.2 34.8 91.0 80.3 274.4
06 22:30 9.8 74 6.87 5.4 30 41 1013.1 16.1 24.2 34.8 91.0 80.3 274.4
06 22:20 9.8 74 6.87 5.5 33 35 1013.1 16.1 24.2 34.8 91.0 80.3 274.4
06 22:10 9.6 75 6.87 5.5 26 30 1013.1 16.1 24.3 34.8 91.2 80.5 275.1
06 22:00 9.7 76 7.01 5.7 26 33 1013.1 16.4 24.5 35.4 92.6 82.2 281.2
06 21:50 9.6 75 6.87 5.5 24 30 1013.1 16.1 24.3 34.8 91.2 80.5 275.1
06 21:40 9.6 75 6.87 5.5 22 30 1013.1 16.1 24.3 34.8 91.2 80.5 275.1
06 21:30 9.6 76 6.96 5.6 20 28 1013.1 16.3 24.4 35.2 92.2 81.6 279.2
06 21:20 9.6 76 6.96 5.7 19 20 1013.1 16.3 24.4 35.2 92.2 81.6 279.2
06 21:10 9.6 76 6.96 5.7 15 19 1013.1 16.3 24.4 35.2 92.2 81.6 279.2
06 21:00 9.6 78 7.15 6 15 19 1013.1 16.7 24.7 36.0 94.2 84.1 288.0
06 20:50 9.8 77 7.15 5.9 15 17 1013.1 16.7 24.7 35.9 93.9 83.9 287.3
06 20:40 10.1 76 7.19 6 15 17 1013.1 16.7 24.7 35.9 94.0 84.1 288.0
06 20:30 10.3 76 7.28 6.3 19 22 1013.1 16.9 24.7 36.2 94.7 85.1 291.5
06 20:20 10.5 75 7.28 6.2 19 22 1013.1 16.9 24.7 36.1 94.5 84.9 290.7
06 20:10 10.4 76 7.33 6.3 17 17 1013.1 17.0 24.8 36.3 95.1 85.7 293.4
06 20:00 10.3 77 7.38 6.5 13 17 1013.1 17.1 24.9 36.6 95.8 86.4 296.1
06 19:50 10.2 77 7.33 6.3 13 15 1013.1 17.0 24.9 36.4 95.4 85.9 294.2
06 19:40 10.3 77 7.38 6.4 13 15 1013.1 17.1 24.9 36.6 95.8 86.4 296.1
06 19:30 10.4 76 7.33 6.4 15 20 1013.1 17.0 24.8 36.3 95.1 85.7 293.4
06 19:20 10.6 76 7.42 6.5 13 15 1013.1 17.2 24.9 36.6 95.9 86.6 296.8
06 19:10 10.7 76 7.47 6.6 15 17 1013.1 17.3 24.9 36.7 96.3 87.2 298.7
06 19:00 10.7 76 7.47 6.6 15 19 1013.1 17.3 24.9 36.7 96.3 87.2 298.7
06 18:50 10.8 76 7.51 6.7 13 15 1013.1 17.4 25.0 36.9 96.6 87.6 300.2
06 18:40 10.8 78 7.71 7.1 15 17 1013.1 17.8 25.3 37.7 98.7 90.2 309.5
06 18:30 10.5 79 7.66 7 15 19 1013.1 17.7 25.3 37.6 98.6 89.9 308.4
06 18:20 10.3 79 7.57 6.8 13 15 1013.1 17.5 25.2 37.3 97.9 88.9 304.9
06 18:10 10.7 78 7.66 7 9 11 1013.1 17.7 25.3 37.5 98.3 89.7 307.6
06 18:00 10.9 76 7.56 6.8 11 13 1013.1 17.5 25.0 37.0 97.0 88.1 302.1
06 17:50 11.5 74 7.64 7 11 13 1013.1 17.6 25.0 37.1 97.1 88.5 303.5
06 17:40 12.3 71 7.71 7.2 13 15 1013.1 17.8 24.9 37.0 96.9 88.5 303.7
06 17:30 12.8 71 7.95 7.7 13 20 1013.1 18.2 25.1 37.7 98.8 91.1 312.7
06 17:20 13.2 70 8.04 7.8 11 15 1013.1 18.4 25.2 37.8 99.2 91.8 315.2
06 17:10 13.6 67 7.89 7.6 19 20 1013.1 18.1 24.8 37.1 97.2 89.4 306.8
06 17:00 13.8 68 8.1 8 15 20 1013.1 18.5 25.1 37.8 99.1 91.8 315.5
06 16:50 14 66 7.96 7.9 15 17 1013.1 18.2 24.8 37.2 97.4 89.8 308.4
06 16:40 14.2 66 8.06 8.1 17 20 1013.1 18.4 24.9 37.5 98.2 90.9 312.1
06 16:30 14.2 66 8.06 7.9 19 26 1013.1 18.4 24.9 37.5 98.2 90.9 312.1
06 16:20 14.2 66 8.06 8.1 20 24 1013.1 18.4 24.9 37.5 98.2 90.9 312.1
06 16:10 14.1 66 8.01 8 19 20 1013.1 18.3 24.9 37.3 97.8 90.3 310.3
06 16:00 14.1 66 8.01 7.9 20 26 1013.1 18.3 24.9 37.3 97.8 90.3 310.3
06 15:50 14.3 67 8.23 8.2 22 24 1013.1 18.8 25.2 38.1 99.9 92.9 319.4
06 15:40 14.4 67 8.28 8.3 24 28 1013.1 18.9 25.2 38.2 100.3 93.5 321.3
06 15:30 14.4 68 8.41 8.6 17 24 1013.1 19.2 25.4 38.7 101.6 95.2 327.2
06 15:20 14.3 67 8.23 8.4 19 20 1013.1 18.8 25.2 38.1 99.9 92.9 319.4
06 15:10 14.2 69 8.43 8.6 13 15 1013.1 19.2 25.5 38.9 102.1 95.7 328.9
06 15:00 14 70 8.44 8.6 20 26 1013.1 19.2 25.6 39.1 102.5 96.0 330.2
06 14:50 14.1 70 8.5 8.7 22 24 1013.1 19.4 25.6 39.2 103.0 96.7 332.6
06 14:40 14.8 69 8.74 9.3 15 20 1013.1 19.8 25.8 39.8 104.6 99.0 340.6
06 14:27 14.3 69 8.48 8.7 20 22 1013.1 19.3 25.6 39.1 102.5 96.2 330.8
06 14:20 14.1 69 8.37 8.5 15 19 1013.1 19.1 25.4 38.7 101.6 95.0 326.6
06 14:10 14.5 70 8.71 9.1 19 20 1013.1 19.8 25.9 39.9 104.7 98.9 340.5
06 14:00 14.3 70 8.6 8.9 17 22 1013.1 19.6 25.7 39.5 103.8 97.8 336.3
06 13:50 14.3 70 8.6 8.9 11 15 1013.1 19.6 25.7 39.5 103.8 97.8 336.3
06 13:40 14.5 72 8.96 9.5 19 22 1013.1 20.3 26.3 40.9 107.4 102.2 352.0
06 13:30 14 72 8.68 9 22 30 1013.1 19.8 26.0 40.0 105.0 99.2 341.3

Last Refresh: 07-Aug-2020 08:17:01

Most of the information presented on this site is sourced from the Bureau of Meteorology.  Copyright in all material sourced from the Bureau of Meteorology resides with the Commonwealth of Australia.